createdAt,value
2019-03-01T00:01:05.398Z,66.32
2019-03-01T00:03:33.174Z,67.03
2019-03-01T00:06:34.257Z,68.16
2019-03-01T00:09:55.099Z,68.26
2019-03-01T00:13:26.404Z,69.24
2019-03-01T00:16:33.317Z,70.67
2019-03-01T00:20:11.236Z,70.36
2019-03-01T00:23:24.714Z,68.88
2019-03-01T00:26:42.928Z,72.62
2019-03-01T00:29:56.997Z,73.48
2019-03-01T00:33:08.607Z,74.02
2019-03-01T00:36:14.899Z,75.32
2019-03-01T00:39:59.923Z,72.57
2019-03-01T00:43:16.756Z,75.18
2019-03-01T00:45:44.021Z,73.42
2019-03-01T00:48:11.318Z,75.85
2019-03-01T00:50:39.311Z,76.23
2019-03-01T00:53:07.316Z,76.45
2019-03-01T00:55:35.341Z,76.43
2019-03-01T00:58:02.986Z,75.59
2019-03-01T01:00:36.571Z,74.89
2019-03-01T01:03:04.871Z,72.73
2019-03-01T01:05:31.981Z,73.65
2019-03-01T01:08:03.447Z,71.55
2019-03-01T01:10:31.007Z,73.34
2019-03-01T01:12:58.827Z,76.71
2019-03-01T01:15:26.311Z,77.16
2019-03-01T01:17:54.101Z,76.45
2019-03-01T01:20:21.819Z,75.45
2019-03-01T01:22:49.489Z,73.49
2019-03-01T01:25:17.065Z,72.85
2019-03-01T01:27:44.566Z,73.26
2019-03-01T01:30:13.049Z,72.65
2019-03-01T01:32:41.303Z,73.09
2019-03-01T01:35:08.998Z,73.68
2019-03-01T01:37:36.945Z,74.23
2019-03-01T01:40:05.733Z,75.75
2019-03-01T01:42:33.329Z,74.33
2019-03-01T01:45:00.419Z,76.94
2019-03-01T01:47:28.145Z,78.42
2019-03-01T01:49:56.062Z,77.99
2019-03-01T01:52:26.423Z,75.84
2019-03-01T01:54:53.715Z,76.82
2019-03-01T01:57:20.942Z,76.57
2019-03-01T01:59:49.135Z,77.60
2019-03-01T02:02:16.709Z,76.52
2019-03-01T02:04:44.650Z,75.57
2019-03-01T02:07:12.239Z,74.76
2019-03-01T02:09:40.030Z,74.92
2019-03-01T02:12:07.662Z,75.29
2019-03-01T02:14:35.750Z,75.11
2019-03-01T02:17:03.663Z,75.32
2019-03-01T02:19:31.637Z,74.71
2019-03-01T02:21:58.908Z,75.14
2019-03-01T02:24:26.362Z,75.71
2019-03-01T02:27:24.700Z,74.71
2019-03-01T02:29:52.465Z,78.17
2019-03-01T02:32:36.781Z,77.53
2019-03-01T02:35:06.042Z,75.66
2019-03-01T02:37:33.622Z,78.37
2019-03-01T02:40:01.395Z,78.43
2019-03-01T02:42:29.614Z,78.68
2019-03-01T02:44:57.098Z,76.82
2019-03-01T02:47:24.541Z,79.22
2019-03-01T02:49:52.121Z,79.39
2019-03-01T02:52:19.613Z,77.03
2019-03-01T02:54:47.201Z,76.54
2019-03-01T02:57:14.384Z,75.61
2019-03-01T02:59:42.066Z,78.67
2019-03-01T03:02:09.580Z,76.79
2019-03-01T03:04:37.219Z,77.38
2019-03-01T03:07:13.651Z,78.67
2019-03-01T03:09:40.977Z,78.63
2019-03-01T03:12:08.305Z,76.08
2019-03-01T03:14:35.896Z,77.46
2019-03-01T03:17:03.600Z,76.29
2019-03-01T03:19:31.223Z,76.60
2019-03-01T03:21:58.766Z,76.68
2019-03-01T03:24:26.020Z,77.95
2019-03-01T03:26:53.637Z,79.90
2019-03-01T03:29:21.606Z,80.30
2019-03-01T03:31:49.066Z,80.80
2019-03-01T03:34:16.482Z,80.12
2019-03-01T03:36:43.944Z,80.36
2019-03-01T03:39:12.162Z,78.68
2019-03-01T03:41:40.347Z,80.36
2019-03-01T03:44:08.498Z,79.59
2019-03-01T03:46:36.342Z,81.16
2019-03-01T03:49:04.231Z,78.67
2019-03-01T03:51:31.814Z,79.58
2019-03-01T03:53:59.555Z,80.85
2019-03-01T03:56:27.437Z,79.49
2019-03-01T03:58:55.809Z,80.75
2019-03-01T04:01:23.033Z,81.14
2019-03-01T04:03:51.031Z,80.39
2019-03-01T04:06:19.077Z,81.73
2019-03-01T04:08:47.036Z,80.68
2019-03-01T04:11:14.712Z,79.46
2019-03-01T04:13:42.541Z,80.97
2019-03-01T04:16:10.313Z,81.21
2019-03-01T04:18:37.947Z,81.03
2019-03-01T04:21:05.735Z,81.93
2019-03-01T04:23:32.925Z,82.20
2019-03-01T04:26:00.197Z,81.80
2019-03-01T04:28:27.903Z,82.54
2019-03-01T04:30:55.720Z,82.65
2019-03-01T04:33:23.108Z,81.21
2019-03-01T04:35:50.550Z,81.23
2019-03-01T04:38:18.314Z,82.06
2019-03-01T04:40:45.601Z,80.66
2019-03-01T04:43:16.110Z,80.94
2019-03-01T04:45:43.840Z,82.36
2019-03-01T04:48:11.640Z,80.51
2019-03-01T04:50:40.073Z,80.11
2019-03-01T04:53:07.841Z,79.64
2019-03-01T04:55:35.665Z,80.32
2019-03-01T04:58:02.986Z,81.95
2019-03-01T05:00:30.222Z,82.61
2019-03-01T05:02:58.784Z,81.40
2019-03-01T05:05:27.603Z,81.17
2019-03-01T05:07:55.385Z,79.71
2019-03-01T05:10:22.617Z,79.24
2019-03-01T05:12:49.999Z,80.71
2019-03-01T05:15:19.848Z,80.26
2019-03-01T05:17:47.599Z,82.09
2019-03-01T05:20:15.009Z,82.49
2019-03-01T05:22:43.041Z,82.76
2019-03-01T05:25:11.062Z,82.82
2019-03-01T05:27:38.705Z,81.93
2019-03-01T05:30:07.712Z,81.35
2019-03-01T05:32:35.632Z,82.69
2019-03-01T05:35:03.864Z,81.46
2019-03-01T05:37:31.405Z,81.08
2019-03-01T05:39:58.885Z,79.56
2019-03-01T05:42:26.405Z,80.07
2019-03-01T05:44:53.827Z,80.32
2019-03-01T05:47:23.856Z,80.53
2019-03-01T05:49:51.862Z,79.74
2019-03-01T05:52:19.130Z,78.08
2019-03-01T05:54:46.790Z,81.47
2019-03-01T05:57:14.618Z,80.49
2019-03-01T05:59:41.997Z,82.55
2019-03-01T06:02:52.667Z,81.32
2019-03-01T06:05:32.218Z,80.36
2019-03-01T06:08:52.580Z,79.79
2019-03-01T06:12:01.187Z,81.24
2019-03-01T06:15:39.006Z,80.56
2019-03-01T06:19:04.247Z,79.72
2019-03-01T06:22:22.296Z,78.83
2019-03-01T06:25:32.636Z,77.84
2019-03-01T06:29:13.437Z,80.32
2019-03-01T06:32:38.962Z,81.36
2019-03-01T06:36:04.203Z,79.11
2019-03-01T06:39:33.100Z,79.13
2019-03-01T06:42:56.675Z,81.47
2019-03-01T06:46:25.109Z,82.34
2019-03-01T06:48:57.460Z,80.29
2019-03-01T06:51:29.190Z,81.64
2019-03-01T06:53:57.211Z,81.64
2019-03-01T06:56:25.195Z,81.63
2019-03-01T06:58:57.210Z,80.74
2019-03-01T07:01:50.289Z,82.09
2019-03-01T07:04:18.463Z,81.88
2019-03-01T07:06:46.679Z,81.91
2019-03-01T07:09:14.724Z,81.39
2019-03-01T07:11:42.475Z,82.71
2019-03-01T07:14:09.630Z,81.32
2019-03-01T07:16:37.997Z,82.71
2019-03-01T07:19:05.542Z,83.51
2019-03-01T07:21:33.095Z,82.10
2019-03-01T07:24:00.770Z,82.14
2019-03-01T07:26:28.300Z,82.81
2019-03-01T07:28:57.209Z,82.21
2019-03-01T07:31:24.880Z,81.02
2019-03-01T07:33:56.337Z,81.05
2019-03-01T07:36:28.517Z,80.14
2019-03-01T07:38:56.264Z,79.61
2019-03-01T07:41:23.781Z,79.66
2019-03-01T07:43:51.192Z,79.45
2019-03-01T07:46:19.058Z,80.33
2019-03-01T07:48:51.616Z,80.89
2019-03-01T07:51:19.700Z,81.20
2019-03-01T07:53:47.290Z,80.96
2019-03-01T07:56:14.907Z,81.33
2019-03-01T07:58:44.187Z,79.53
2019-03-01T08:01:15.855Z,78.15
2019-03-01T08:03:49.754Z,78.88
2019-03-01T08:06:14.334Z,80.87
2019-03-01T08:08:42.867Z,78.30
2019-03-01T08:11:11.338Z,78.88
2019-03-01T08:13:38.971Z,77.89
2019-03-01T08:16:06.486Z,77.42
2019-03-01T08:18:34.581Z,79.15
2019-03-01T08:21:02.647Z,79.09
2019-03-01T08:23:31.776Z,78.26
2019-03-01T08:26:00.428Z,79.04
2019-03-01T08:28:27.872Z,78.13
2019-03-01T08:30:55.509Z,78.73
2019-03-01T08:33:22.904Z,79.91
2019-03-01T08:35:51.262Z,77.52
2019-03-01T08:38:25.524Z,77.22
2019-03-01T08:40:54.493Z,76.91
2019-03-01T08:43:25.864Z,78.17
2019-03-01T08:45:53.688Z,78.75
2019-03-01T08:48:21.498Z,78.21
2019-03-01T08:50:55.472Z,79.67
2019-03-01T08:53:22.892Z,79.22
2019-03-01T08:55:57.581Z,79.93
2019-03-01T08:58:28.448Z,80.23
2019-03-01T09:00:59.625Z,79.39
2019-03-01T09:03:41.714Z,78.95
2019-03-01T09:06:10.814Z,78.44
2019-03-01T09:08:38.665Z,79.08
2019-03-01T09:11:09.198Z,80.77
2019-03-01T09:13:37.695Z,80.63
2019-03-01T09:16:05.964Z,79.68
2019-03-01T09:18:35.951Z,78.49
2019-03-01T09:21:05.787Z,78.83
2019-03-01T09:23:34.401Z,79.77
2019-03-01T09:26:02.272Z,77.66
2019-03-01T09:28:32.738Z,78.15
2019-03-01T09:31:04.646Z,76.87
2019-03-01T09:33:32.940Z,77.49
2019-03-01T09:36:11.032Z,77.67
2019-03-01T09:38:42.886Z,78.17
2019-03-01T09:41:10.510Z,78.74
2019-03-01T09:43:37.997Z,75.54
2019-03-01T09:46:06.192Z,77.29
2019-03-01T09:48:33.693Z,77.24
2019-03-01T09:51:01.342Z,77.95
2019-03-01T09:53:30.667Z,75.54
2019-03-01T09:55:59.988Z,75.84
2019-03-01T09:58:27.980Z,74.23
2019-03-01T10:01:01.814Z,73.99
2019-03-01T10:03:32.334Z,74.50
2019-03-01T10:05:59.727Z,73.84
2019-03-01T10:08:27.810Z,73.19
2019-03-01T10:10:55.375Z,73.80
2019-03-01T10:13:23.213Z,74.97
2019-03-01T10:15:50.613Z,74.95
2019-03-01T10:18:18.073Z,74.18
2019-03-01T10:20:46.526Z,74.87
2019-03-01T10:23:15.435Z,72.18
2019-03-01T10:25:43.821Z,73.83
2019-03-01T10:28:22.286Z,73.70
2019-03-01T10:30:49.819Z,73.85
2019-03-01T10:33:17.387Z,73.66
2019-03-01T10:35:44.727Z,73.61
2019-03-01T10:38:12.527Z,74.22
2019-03-01T10:40:40.068Z,71.86
2019-03-01T10:43:07.784Z,71.99
2019-03-01T10:45:35.527Z,72.61
2019-03-01T10:48:03.401Z,73.17
2019-03-01T10:50:31.062Z,72.72
2019-03-01T10:52:59.002Z,72.78
2019-03-01T10:55:26.541Z,71.61
2019-03-01T10:57:54.930Z,70.66
2019-03-01T11:00:24.291Z,71.19
2019-03-01T11:02:51.889Z,70.85
2019-03-01T11:05:19.292Z,72.12
2019-03-01T11:07:48.150Z,71.57
2019-03-01T11:10:18.859Z,72.22
2019-03-01T11:12:49.249Z,70.79
2019-03-01T11:15:16.984Z,70.99
2019-03-01T11:17:44.351Z,70.75
2019-03-01T11:20:13.169Z,70.20
2019-03-01T11:22:41.334Z,70.65
2019-03-01T11:25:11.327Z,69.97
2019-03-01T11:27:39.270Z,70.20
2019-03-01T11:30:12.273Z,69.95
2019-03-01T11:32:39.985Z,68.43
2019-03-01T11:35:08.298Z,67.53
2019-03-01T11:37:35.711Z,67.50
2019-03-01T11:40:03.975Z,67.06
2019-03-01T11:42:31.789Z,65.15
2019-03-01T11:44:59.067Z,65.26
2019-03-01T11:47:26.519Z,60.81
2019-03-01T11:49:53.958Z,65.34
2019-03-01T11:52:22.277Z,62.17
2019-03-01T11:54:50.460Z,63.28
2019-03-01T11:57:18.026Z,63.77
2019-03-01T11:59:45.711Z,63.31
2019-03-01T12:02:13.421Z,62.64
2019-03-01T12:04:41.050Z,64.05
2019-03-01T12:07:08.348Z,60.07
2019-03-01T12:09:36.037Z,63.83
2019-03-01T12:12:03.737Z,63.71
2019-03-01T12:14:31.609Z,61.51
2019-03-01T12:16:59.145Z,61.99
2019-03-01T12:19:26.492Z,61.74
2019-03-01T12:21:54.841Z,63.34
2019-03-01T12:24:23.199Z,61.17
2019-03-01T12:26:50.601Z,61.55
2019-03-01T12:29:18.207Z,60.62
2019-03-01T12:31:46.119Z,62.11
2019-03-01T12:34:13.942Z,61.76
2019-03-01T12:36:41.741Z,62.38
2019-03-01T12:39:10.030Z,65.02
2019-03-01T12:41:37.374Z,63.60
2019-03-01T12:44:05.675Z,63.01
2019-03-01T12:46:33.046Z,64.75
2019-03-01T12:49:00.175Z,64.54
2019-03-01T12:51:27.968Z,62.64
2019-03-01T12:53:55.981Z,59.28
2019-03-01T12:56:23.418Z,60.79
2019-03-01T12:58:54.226Z,59.81
2019-03-01T13:01:21.872Z,61.62
2019-03-01T13:03:49.278Z,61.92
2019-03-01T13:06:16.559Z,60.50
2019-03-01T13:08:44.072Z,60.14
2019-03-01T13:11:12.488Z,61.24
2019-03-01T13:13:41.276Z,58.67
2019-03-01T13:16:09.030Z,62.79
2019-03-01T13:18:36.519Z,62.04
2019-03-01T13:21:03.857Z,61.50
2019-03-01T13:23:31.587Z,59.49
2019-03-01T13:25:59.201Z,59.64
2019-03-01T13:28:27.097Z,59.93
2019-03-01T13:30:54.936Z,59.87
2019-03-01T13:33:23.229Z,59.19
2019-03-01T13:35:50.629Z,57.44
2019-03-01T13:38:18.049Z,60.69
2019-03-01T13:40:45.853Z,58.63
2019-03-01T13:43:13.410Z,56.04
2019-03-01T13:45:41.279Z,56.82
2019-03-01T13:48:08.778Z,57.06
2019-03-01T13:50:38.308Z,54.49
2019-03-01T13:53:06.588Z,55.47
2019-03-01T13:55:34.340Z,53.29
2019-03-01T13:58:02.179Z,56.03
2019-03-01T14:00:30.186Z,55.49
2019-03-01T14:02:57.825Z,56.09
2019-03-01T14:05:25.805Z,55.21
2019-03-01T14:07:56.683Z,56.24
2019-03-01T14:10:22.973Z,55.40
2019-03-01T14:12:50.541Z,55.64
2019-03-01T14:15:18.051Z,55.59
2019-03-01T14:17:46.235Z,55.92
2019-03-01T14:20:19.005Z,55.67
2019-03-01T14:22:49.195Z,55.95
2019-03-01T14:25:17.413Z,55.97
2019-03-01T14:27:45.124Z,56.25
2019-03-01T14:30:15.710Z,56.06
2019-03-01T14:32:43.904Z,56.12
2019-03-01T14:35:11.771Z,56.12
2019-03-01T14:37:39.256Z,56.65
2019-03-01T14:40:09.370Z,55.80
2019-03-01T14:42:36.884Z,55.76
2019-03-01T14:45:09.677Z,56.85
2019-03-01T14:47:38.681Z,56.34
2019-03-01T14:50:08.718Z,57.11
2019-03-01T14:52:36.119Z,57.45
2019-03-01T14:55:04.801Z,56.93
2019-03-01T14:57:37.790Z,57.73
2019-03-01T15:00:29.499Z,57.79
2019-03-01T15:03:38.124Z,57.99
2019-03-01T15:06:07.543Z,57.77
2019-03-01T15:08:36.533Z,57.60
2019-03-01T15:11:10.970Z,57.68
2019-03-01T15:13:38.443Z,57.14
2019-03-01T15:16:06.632Z,57.89
2019-03-01T15:18:34.733Z,57.76
2019-03-01T15:21:02.909Z,57.83
2019-03-01T15:23:31.202Z,57.63
2019-03-01T15:25:59.042Z,57.64
2019-03-01T15:28:26.450Z,57.80
2019-03-01T15:30:54.111Z,58.13
2019-03-01T15:33:21.592Z,57.92
2019-03-01T15:35:49.258Z,57.46
2019-03-01T15:38:17.170Z,57.53
2019-03-01T15:40:44.534Z,57.85
2019-03-01T15:43:11.905Z,58.51
2019-03-01T15:45:40.460Z,57.91
2019-03-01T15:48:08.680Z,58.34
2019-03-01T15:50:36.173Z,57.90
2019-03-01T15:53:04.101Z,58.25
2019-03-01T15:55:31.574Z,58.71
2019-03-01T15:57:59.899Z,58.90
2019-03-01T16:00:29.564Z,59.09
2019-03-01T16:02:57.145Z,59.09
2019-03-01T16:05:24.648Z,59.08
2019-03-01T16:07:52.092Z,59.15
2019-03-01T16:10:19.675Z,58.38
2019-03-01T16:12:47.066Z,58.50
2019-03-01T16:15:14.781Z,58.85
2019-03-01T16:17:42.255Z,59.05
2019-03-01T16:20:12.008Z,58.89
2019-03-01T16:22:40.089Z,58.82
2019-03-01T16:25:09.869Z,58.93
2019-03-01T16:27:37.495Z,58.74
2019-03-01T16:30:10.016Z,59.45
2019-03-01T16:32:41.121Z,59.40
2019-03-01T16:35:08.982Z,59.76
2019-03-01T16:37:37.846Z,59.86
2019-03-01T16:40:08.644Z,59.87
2019-03-01T16:42:38.993Z,60.27
2019-03-01T16:45:05.820Z,59.94
2019-03-01T16:47:33.391Z,59.97
2019-03-01T16:50:02.746Z,59.62
2019-03-01T16:52:31.243Z,59.93
2019-03-01T16:54:59.100Z,60.25
2019-03-01T16:57:26.375Z,60.31
2019-03-01T16:59:53.959Z,60.59
2019-03-01T17:02:21.860Z,61.25
2019-03-01T17:04:49.298Z,61.33
2019-03-01T17:07:16.525Z,61.38
2019-03-01T17:09:47.341Z,61.81
2019-03-01T17:12:16.669Z,61.56
2019-03-01T17:14:43.965Z,61.65
2019-03-01T17:17:11.528Z,61.36
2019-03-01T17:19:39.297Z,62.19
2019-03-01T17:22:12.873Z,62.02
2019-03-01T17:24:40.773Z,61.83
2019-03-01T17:27:08.402Z,62.27
2019-03-01T17:29:39.245Z,62.00
2019-03-01T17:32:05.580Z,62.45
2019-03-01T17:34:33.584Z,62.91
2019-03-01T17:37:01.234Z,62.99
2019-03-01T17:39:28.362Z,63.59
2019-03-01T17:41:55.754Z,63.08
2019-03-01T17:44:24.199Z,63.10
2019-03-01T17:46:51.591Z,62.84
2019-03-01T17:49:19.158Z,63.61
2019-03-01T17:51:46.561Z,63.67
2019-03-01T17:54:14.309Z,63.98
2019-03-01T17:56:42.441Z,64.25
2019-03-01T17:59:11.843Z,63.57
2019-03-01T18:01:42.130Z,63.73
2019-03-01T18:04:10.126Z,64.06
2019-03-01T18:06:38.268Z,63.73
2019-03-01T18:09:06.588Z,64.76
2019-03-01T18:11:34.252Z,64.56
2019-03-01T18:14:01.746Z,64.86
2019-03-01T18:16:31.037Z,64.94
2019-03-01T18:18:58.597Z,64.69
2019-03-01T18:21:26.784Z,64.81
2019-03-01T18:23:55.269Z,64.09
2019-03-01T18:26:23.102Z,64.70
2019-03-01T18:28:51.405Z,64.29
2019-03-01T18:31:19.302Z,64.20
2019-03-01T18:33:47.067Z,63.97
2019-03-01T18:36:14.709Z,63.92
2019-03-01T18:38:42.245Z,64.68
2019-03-01T18:41:11.089Z,64.85
2019-03-01T18:43:39.236Z,65.20
2019-03-01T18:46:09.230Z,64.67
2019-03-01T18:48:43.938Z,64.93
2019-03-01T18:51:23.140Z,64.87
2019-03-01T18:53:50.694Z,65.00
2019-03-01T18:56:18.290Z,65.46
2019-03-01T18:58:49.828Z,64.97
2019-03-01T19:01:18.401Z,65.90
2019-03-01T19:03:46.124Z,65.29
2019-03-01T19:06:16.190Z,65.64
2019-03-01T19:08:44.017Z,65.67
2019-03-01T19:11:11.926Z,65.57
2019-03-01T19:13:39.773Z,65.65
2019-03-01T19:16:07.810Z,66.13
2019-03-01T19:18:35.749Z,66.01
2019-03-01T19:21:03.632Z,65.93
2019-03-01T19:23:39.363Z,66.29
2019-03-01T19:26:15.136Z,65.92
2019-03-01T19:28:42.770Z,66.41
2019-03-01T19:31:10.921Z,66.61
2019-03-01T19:33:41.517Z,65.99
2019-03-01T19:36:07.646Z,65.84
2019-03-01T19:38:35.380Z,66.63
2019-03-01T19:41:03.582Z,66.92
2019-03-01T19:43:31.781Z,65.99
2019-03-01T19:45:59.005Z,65.80
2019-03-01T19:48:26.505Z,67.49
2019-03-01T19:50:58.442Z,67.33
2019-03-01T19:53:26.468Z,67.21
2019-03-01T19:55:54.554Z,67.78
2019-03-01T19:58:25.571Z,68.74
2019-03-01T20:00:54.669Z,67.95
2019-03-01T20:03:22.365Z,68.18
2019-03-01T20:05:49.629Z,69.21
2019-03-01T20:08:17.558Z,68.89
2019-03-01T20:10:47.561Z,69.75
2019-03-01T20:13:16.419Z,69.55
2019-03-01T20:15:46.262Z,69.54
2019-03-01T20:18:13.866Z,69.14
2019-03-01T20:20:41.034Z,68.64
2019-03-01T20:23:08.494Z,68.47
2019-03-01T20:25:36.351Z,68.06
2019-03-01T20:28:04.042Z,68.02
2019-03-01T20:30:31.998Z,67.95
2019-03-01T20:32:59.786Z,67.55
2019-03-01T20:35:27.738Z,67.32
2019-03-01T20:37:56.043Z,67.37
2019-03-01T20:40:26.560Z,67.31
2019-03-01T20:42:55.750Z,67.29
2019-03-01T20:45:25.959Z,67.12
2019-03-01T20:47:54.921Z,66.96
2019-03-01T20:50:22.874Z,66.71
2019-03-01T20:52:50.450Z,66.61
2019-03-01T20:55:18.143Z,66.43
2019-03-01T20:57:45.887Z,66.40
2019-03-01T21:00:14.879Z,66.43
2019-03-01T21:02:42.416Z,66.26
2019-03-01T21:05:10.425Z,66.28
2019-03-01T21:07:37.821Z,66.13
2019-03-01T21:10:16.056Z,66.24
2019-03-01T21:12:44.205Z,65.95
2019-03-01T21:15:12.498Z,65.99
2019-03-01T21:17:39.950Z,65.55
2019-03-01T21:20:09.172Z,65.56
2019-03-01T21:22:39.718Z,65.77
2019-03-01T21:25:08.722Z,65.74
2019-03-01T21:27:36.559Z,65.81
2019-03-01T21:30:07.774Z,65.75
2019-03-01T21:32:37.078Z,65.52
2019-03-01T21:35:06.811Z,65.58
2019-03-01T21:37:34.711Z,65.52
2019-03-01T21:40:04.297Z,65.53
2019-03-01T21:42:31.572Z,65.60
2019-03-01T21:44:59.204Z,65.76
2019-03-01T21:47:26.754Z,65.65
2019-03-01T21:49:54.362Z,65.48
2019-03-01T21:52:22.187Z,65.67
2019-03-01T21:54:51.940Z,65.47
2019-03-01T21:57:19.538Z,65.49
2019-03-01T21:59:49.744Z,65.58
2019-03-01T22:02:17.761Z,65.30
2019-03-01T22:04:46.179Z,65.44
2019-03-01T22:07:14.585Z,65.41
2019-03-01T22:09:42.219Z,65.49
2019-03-01T22:12:09.835Z,65.27
2019-03-01T22:14:37.552Z,65.55
2019-03-01T22:17:05.029Z,65.36
2019-03-01T22:19:33.646Z,65.41
2019-03-01T22:22:01.254Z,65.36
2019-03-01T22:24:28.806Z,65.37
2019-03-01T22:26:56.914Z,65.04
2019-03-01T22:29:24.393Z,65.38
2019-03-01T22:31:51.897Z,65.29
2019-03-01T22:34:19.145Z,65.37
2019-03-01T22:36:49.522Z,65.26
2019-03-01T22:39:17.540Z,65.20
2019-03-01T22:41:45.829Z,65.16
2019-03-01T22:44:12.993Z,65.02
2019-03-01T22:46:40.518Z,65.06
2019-03-01T22:49:08.115Z,65.27
2019-03-01T22:51:35.490Z,65.14
2019-03-01T22:54:03.619Z,64.98
2019-03-01T22:56:31.105Z,64.90
2019-03-01T22:58:58.950Z,64.85
2019-03-01T23:01:40.238Z,64.80
2019-03-01T23:04:08.171Z,64.84
2019-03-01T23:06:35.453Z,64.93
2019-03-01T23:09:10.198Z,64.95
2019-03-01T23:11:36.012Z,64.97
2019-03-01T23:14:03.913Z,65.13
2019-03-01T23:16:33.926Z,65.04
2019-03-01T23:19:01.618Z,65.08
2019-03-01T23:21:32.409Z,65.19
2019-03-01T23:23:59.690Z,65.22
2019-03-01T23:26:28.218Z,64.98
2019-03-01T23:28:55.606Z,65.15
2019-03-01T23:31:22.911Z,65.19
2019-03-01T23:33:50.864Z,65.29
2019-03-01T23:36:18.541Z,65.14
2019-03-01T23:38:46.659Z,65.24
2019-03-01T23:41:15.065Z,65.60
2019-03-01T23:43:42.900Z,65.91
2019-03-01T23:46:10.584Z,66.12
2019-03-01T23:48:37.865Z,66.21
2019-03-01T23:51:06.623Z,65.34
2019-03-01T23:53:36.243Z,66.24
2019-03-01T23:56:03.541Z,65.55
2019-03-01T23:58:31.088Z,65.97
